Time;durP1;ratioP1;P1;durP2;ratioP2;P2;SDS_P1;SDS_P2;PMS_P1;PMS_P2;Temp;Humidity;BMP_temperature;BMP_pressure;BME280_temperature;BME280_humidity;BME280_pressure;Samples;Min_cycle;Max_cycle;Signal;HPM_P1;HPM_P2
2022/10/17 00:00:55;;;;;;;18.33;13.98;;;;;;;12.44;91.18;101058.50;4457018;32;34094;-76
2022/10/17 00:03:43;;;;;;;19.98;15.50;;;;;;;12.39;92.07;101064.03;4453922;32;33613;-76
2022/10/17 00:06:30;;;;;;;21.97;15.80;;;;;;;11.91;93.51;101061.13;4453851;32;32835;-75
2022/10/17 00:09:16;;;;;;;21.83;15.57;;;;;;;11.82;94.69;101068.28;4452480;32;34679;-75
2022/10/17 00:12:04;;;;;;;19.65;13.80;;;;;;;12.13;93.44;101058.75;4455008;32;34091;-75
2022/10/17 00:14:51;;;;;;;19.67;15.25;;;;;;;12.71;88.89;101059.91;4452898;32;33826;-75
2022/10/17 00:17:40;;;;;;;19.52;15.32;;;;;;;12.46;89.46;101048.03;4453762;32;34181;-75
2022/10/17 00:20:29;;;;;;;21.50;16.10;;;;;;;11.89;92.02;101055.91;4455969;32;33509;-75
2022/10/17 00:23:16;;;;;;;22.58;15.52;;;;;;;11.55;94.28;101063.22;4438964;32;33724;-75
2022/10/17 00:26:04;;;;;;;21.23;16.45;;;;;;;11.78;93.64;101072.69;4445355;32;33597;-75
2022/10/17 00:28:51;;;;;;;19.95;15.05;;;;;;;11.21;97.01;101064.78;4443729;32;32896;-75
2022/10/17 00:31:40;;;;;;;20.60;14.75;;;;;;;11.93;93.20;101053.41;4440565;32;34392;-75
2022/10/17 00:34:28;;;;;;;17.80;14.00;;;;;;;12.15;92.33;101067.53;4456008;32;34148;-75
2022/10/17 00:37:14;;;;;;;18.60;14.07;;;;;;;12.53;87.89;101065.00;4458554;32;33661;-75
2022/10/17 00:40:01;;;;;;;18.30;14.07;;;;;;;12.32;89.25;101071.78;4459815;32;34265;-75
2022/10/17 00:42:50;;;;;;;18.07;13.40;;;;;;;12.23;89.51;101073.53;4448485;32;33340;-75
2022/10/17 00:45:36;;;;;;;16.98;12.98;;;;;;;12.62;85.77;101073.47;4457224;32;35091;-75
2022/10/17 00:48:25;;;;;;;17.48;13.93;;;;;;;12.28;87.60;101066.06;4448660;32;34687;-75
2022/10/17 00:51:11;;;;;;;19.83;14.73;;;;;;;12.35;86.09;101061.06;4447094;32;33126;-75
2022/10/17 00:53:59;;;;;;;17.92;14.10;;;;;;;11.82;90.40;101069.09;4456879;32;33861;-75
2022/10/17 00:56:46;;;;;;;19.77;14.40;;;;;;;11.90;89.96;101071.28;4447610;32;33639;-75
2022/10/17 00:59:35;;;;;;;18.10;13.00;;;;;;;11.79;91.31;101074.34;4451976;32;33735;-75
2022/10/17 01:02:22;;;;;;;17.08;12.80;;;;;;;12.22;89.02;101066.41;4437030;32;33334;-75
2022/10/17 01:05:10;;;;;;;15.38;12.00;;;;;;;12.37;86.90;101058.81;4451712;32;33875;-75
2022/10/17 01:07:58;;;;;;;17.70;12.65;;;;;;;12.49;85.93;101058.44;4441794;32;32783;-75
2022/10/17 01:11:06;;;;;;;17.87;13.50;;;;;;;12.47;85.74;101057.94;4411260;32;791053;-75
2022/10/17 01:14:25;;;;;;;20.23;14.52;;;;;;;12.42;85.80;101060.72;4448987;32;34279;-75
2022/10/17 01:17:23;;;;;;;21.60;15.18;;;;;;;11.79;89.31;101068.88;4445318;32;33393;-75
2022/10/17 01:20:27;;;;;;;18.10;13.62;;;;;;;11.52;91.00;101063.78;4437100;32;35014;-76
2022/10/17 01:23:27;;;;;;;17.23;13.30;;;;;;;11.36;91.97;101068.56;4462907;32;34115;-75
2022/10/17 01:26:50;;;;;;;16.12;12.93;;;;;;;11.87;89.30;101065.56;4436655;32;33557;-75
2022/10/17 01:29:46;;;;;;;19.92;13.80;;;;;;;11.82;89.28;101068.28;4442034;32;33395;-76
2022/10/17 01:33:10;;;;;;;17.75;12.63;;;;;;;11.46;91.34;101058.31;4447979;32;35004;-75
2022/10/17 01:36:00;;;;;;;18.00;12.32;;;;;;;11.92;89.26;101052.59;4427793;32;33490;-75
2022/10/17 01:38:56;;;;;;;15.82;12.00;;;;;;;12.07;87.87;101056.34;4437554;32;33224;-76
2022/10/17 01:42:06;;;;;;;17.33;13.03;;;;;;;12.19;87.06;101053.22;4442553;32;33840;-75
2022/10/17 01:44:55;;;;;;;16.62;13.02;;;;;;;11.86;88.53;101055.66;4441923;32;34105;-75
2022/10/17 01:47:41;;;;;;;18.00;13.32;;;;;;;11.26;92.47;101059.22;4443985;32;34703;-75
2022/10/17 01:50:33;;;;;;;18.23;13.20;;;;;;;11.32;91.96;101062.78;4441571;32;33918;-75
2022/10/17 01:53:28;;;;;;;16.62;12.57;;;;;;;11.41;91.00;101065.75;4462981;32;35448;-75
2022/10/17 01:56:15;;;;;;;16.77;12.30;;;;;;;11.48;90.63;101060.78;4436831;32;35162;-75
2022/10/17 01:59:13;;;;;;;16.00;12.82;;;;;;;11.78;88.20;101067.22;4457146;32;33744;-75
2022/10/17 02:01:59;;;;;;;16.30;11.87;;;;;;;11.57;89.19;101072.81;4439194;32;33920;-75
2022/10/17 02:04:47;;;;;;;16.00;12.18;;;;;;;11.58;89.59;101063.47;4463127;32;32980;-75
2022/10/17 02:07:33;;;;;;;17.12;11.60;;;;;;;11.78;87.79;101075.44;4452057;32;35057;-75
2022/10/17 02:10:43;;;;;;;14.80;11.57;;;;;;;11.61;89.15;101071.16;4454756;32;33440;-75
2022/10/17 02:14:09;;;;;;;15.38;11.27;;;;;;;11.90;86.74;101056.75;4438089;32;33379;-75
2022/10/17 02:17:01;;;;;;;16.35;11.45;;;;;;;11.90;86.51;101064.97;4460180;32;33897;-75
2022/10/17 02:19:56;;;;;;;14.98;10.73;;;;;;;11.99;85.66;101065.19;4454413;32;34773;-75
2022/10/17 02:22:50;;;;;;;17.67;11.82;;;;;;;12.01;84.57;101063.81;4448810;32;34015;-75
2022/10/17 02:25:50;;;;;;;14.98;11.30;;;;;;;11.62;86.89;101072.81;4458357;32;34427;-75
2022/10/17 02:28:47;;;;;;;15.43;11.30;;;;;;;11.73;nan;101067.25;4440102;32;33919;-75
2022/10/17 02:31:38;;;;;;;17.60;12.73;;;;;;;11.88;85.87;101072.69;4437066;32;34123;-75
2022/10/17 02:34:31;;;;;;;14.98;11.18;;;;;;;11.21;89.59;101073.00;4456471;32;33573;-75
2022/10/17 02:37:22;;;;;;;16.48;11.88;;;;;;;11.61;88.25;101067.56;4431201;32;33311;-75
2022/10/17 02:40:13;;;;;;;15.60;10.75;;;;;;;11.59;88.25;101070.63;4450963;32;34105;-75
2022/10/17 02:42:59;;;;;;;17.43;12.30;;;;;;;11.26;89.99;101081.19;4444839;32;34173;-75
2022/10/17 02:45:47;;;;;;;17.23;11.93;;;;;;;10.98;91.37;101077.16;4449100;32;33684;-75
2022/10/17 02:48:38;;;;;;;17.70;11.77;;;;;;;10.92;92.28;101075.53;4437783;32;33317;-75
2022/10/17 02:51:43;;;;;;;15.93;10.97;;;;;;;11.15;91.69;101087.81;4442318;32;33816;-75
2022/10/17 02:54:38;;;;;;;16.10;11.40;;;;;;;10.89;91.76;101089.00;4450548;32;35072;-75
2022/10/17 02:57:41;;;;;;;16.45;12.20;;;;;;;10.35;95.11;101087.66;4456632;32;34673;-75
2022/10/17 03:00:28;;;;;;;15.18;10.95;;;;;;;10.61;94.05;101091.22;4436920;32;32985;-75
2022/10/17 03:03:19;;;;;;;16.33;11.02;;;;;;;11.24;90.21;101099.03;4438875;32;33868;-75
2022/10/17 03:06:06;;;;;;;15.02;11.25;;;;;;;11.13;89.86;101101.00;4448949;32;35183;-75
2022/10/17 03:08:52;;;;;;;16.10;10.55;;;;;;;11.10;90.58;101096.06;4456927;32;33744;-75
2022/10/17 03:11:39;;;;;;;15.23;10.57;;;;;;;11.24;88.73;101096.28;4437304;32;33447;-75
2022/10/17 03:14:25;;;;;;;14.63;9.98;;;;;;;11.40;88.35;101094.31;4455291;32;33741;-75
2022/10/17 03:17:14;;;;;;;15.27;10.48;;;;;;;11.03;90.25;101095.53;4455657;32;34798;-75
2022/10/17 03:20:03;;;;;;;16.52;11.25;;;;;;;10.76;91.37;101101.37;4449420;32;34773;-75
2022/10/17 03:22:50;;;;;;;18.42;11.23;;;;;;;10.48;93.59;101095.34;4437601;32;34528;-75
2022/10/17 03:25:39;;;;;;;14.87;11.27;;;;;;;10.92;91.98;101104.87;4449202;32;34661;-76
2022/10/17 03:28:30;;;;;;;16.02;10.95;;;;;;;10.45;93.60;101100.56;4438966;32;34061;-75
2022/10/17 03:31:17;;;;;;;16.15;11.32;;;;;;;10.33;95.04;101109.88;4427780;32;34072;-75
2022/10/17 03:34:08;;;;;;;15.77;10.27;;;;;;;10.44;94.41;101109.88;4446253;32;35169;-75
2022/10/17 03:36:56;;;;;;;13.90;9.70;;;;;;;10.88;92.75;101112.84;4438096;32;33813;-75
2022/10/17 03:39:43;;;;;;;12.55;9.65;;;;;;;11.15;89.78;101115.25;4457098;32;35090;-75
2022/10/17 03:42:31;;;;;;;13.88;10.70;;;;;;;11.08;89.98;101120.22;4458930;32;33805;-75
2022/10/17 03:45:19;;;;;;;14.63;10.25;;;;;;;10.41;91.33;101115.91;4449016;32;33346;-75
2022/10/17 03:48:06;;;;;;;16.08;11.25;;;;;;;10.85;90.21;101134.53;4439508;32;33810;-75
2022/10/17 03:51:00;;;;;;;14.63;9.90;;;;;;;10.64;91.17;101137.25;4440900;32;35029;-75
2022/10/17 03:53:46;;;;;;;14.32;9.73;;;;;;;10.88;90.53;101134.78;4455457;32;33858;-75
2022/10/17 03:56:32;;;;;;;13.77;9.73;;;;;;;10.73;90.19;101132.03;4446841;32;32830;-75
2022/10/17 03:59:19;;;;;;;13.50;9.75;;;;;;;10.98;89.13;101139.41;4457225;32;33870;-75
2022/10/17 04:02:09;;;;;;;14.02;10.52;;;;;;;11.09;88.08;101142.97;4454068;32;34265;-75
2022/10/17 04:04:58;;;;;;;16.50;10.98;;;;;;;10.58;90.99;101133.69;4448409;32;33454;-75
2022/10/17 04:07:51;;;;;;;13.02;9.70;;;;;;;10.91;90.10;101136.97;4453894;32;33397;-75
2022/10/17 04:10:39;;;;;;;15.57;9.53;;;;;;;11.20;87.75;101136.38;4448561;32;33835;-77
2022/10/17 04:13:27;;;;;;;14.50;9.93;;;;;;;11.02;87.58;101137.78;4442434;32;35044;-78
2022/10/17 04:16:17;;;;;;;14.40;10.32;;;;;;;10.98;88.63;101142.16;4442017;32;34793;-78
2022/10/17 04:19:11;;;;;;;15.93;10.02;;;;;;;10.83;88.64;101134.78;4441702;32;35113;-78
2022/10/17 04:21:58;;;;;;;13.77;10.07;;;;;;;10.06;93.18;101140.22;4451771;32;34656;-78
2022/10/17 04:24:47;;;;;;;13.93;10.10;;;;;;;10.42;92.37;101142.22;4436256;32;35128;-78
2022/10/17 04:27:34;;;;;;;13.80;9.50;;;;;;;10.20;93.01;101143.25;4435229;32;33544;-78
2022/10/17 04:30:22;;;;;;;13.43;10.15;;;;;;;10.41;92.13;101160.56;4435953;32;33253;-78
2022/10/17 04:33:11;;;;;;;12.75;9.07;;;;;;;10.27;92.91;101164.91;4451723;32;34469;-78
2022/10/17 04:36:10;;;;;;;14.87;9.68;;;;;;;11.03;87.53;101161.34;4454216;32;34757;-78
2022/10/17 04:39:01;;;;;;;13.20;9.57;;;;;;;10.39;91.28;101161.91;4441513;32;33469;-78
2022/10/17 04:41:50;;;;;;;15.17;10.33;;;;;;;10.85;88.43;101162.75;4439796;32;33876;-77
2022/10/17 04:44:47;;;;;;;13.85;9.38;;;;;;;10.89;87.97;101160.28;4439699;32;33478;-78
2022/10/17 04:47:38;;;;;;;15.05;10.38;;;;;;;10.69;89.81;101161.94;4438944;32;33502;-78
2022/10/17 04:50:26;;;;;;;14.77;10.40;;;;;;;10.08;92.64;101162.69;4432427;32;33441;-78
2022/10/17 04:53:22;;;;;;;15.68;10.88;;;;;;;10.33;92.42;101164.66;4444256;32;34164;-78
2022/10/17 04:56:16;;;;;;;15.45;10.35;;;;;;;10.12;92.80;101165.69;4442221;32;33881;-78
2022/10/17 04:59:03;;;;;;;15.55;10.75;;;;;;;10.43;91.87;101171.25;4431186;32;33886;-78
2022/10/17 05:01:52;;;;;;;14.20;10.13;;;;;;;10.29;93.06;101174.50;4431886;32;33147;-78
2022/10/17 05:04:40;;;;;;;13.65;10.43;;;;;;;10.73;90.11;101178.66;4443450;32;32756;-78
2022/10/17 05:07:34;;;;;;;14.65;10.43;;;;;;;10.65;89.36;101174.56;4441716;32;34449;-78
2022/10/17 05:10:21;;;;;;;15.30;10.63;;;;;;;10.54;89.31;101175.66;4442183;32;32994;-78
2022/10/17 05:13:10;;;;;;;16.70;11.80;;;;;;;10.76;88.99;101184.44;4435728;32;35738;-78
2022/10/17 05:16:01;;;;;;;18.33;13.27;;;;;;;10.89;87.88;101185.78;4447151;32;34575;-78
2022/10/17 05:18:57;;;;;;;18.33;12.73;;;;;;;10.73;88.57;101190.47;4443764;32;34220;-78
2022/10/17 05:21:49;;;;;;;18.17;13.30;;;;;;;10.67;87.84;101185.22;4438615;32;34448;-78
2022/10/17 05:24:40;;;;;;;25.17;17.37;;;;;;;10.42;90.19;101191.53;4425844;32;33541;-78
2022/10/17 05:27:29;;;;;;;24.02;16.12;;;;;;;9.96;93.12;101203.19;4443731;32;32746;-78
2022/10/17 05:30:18;;;;;;;20.98;14.38;;;;;;;10.11;93.25;101210.63;4442885;32;32658;-78
2022/10/17 05:33:05;;;;;;;28.00;19.23;;;;;;;10.77;90.48;101213.47;4445167;32;33808;-78
2022/10/17 05:35:52;;;;;;;32.60;22.60;;;;;;;10.73;89.61;101211.53;4444282;32;33435;-78
2022/10/17 05:38:42;;;;;;;28.67;19.27;;;;;;;10.38;92.03;101213.16;4426354;32;33805;-78
2022/10/17 05:41:31;;;;;;;25.48;18.25;;;;;;;9.99;94.76;101218.22;4415972;32;34977;-78
2022/10/17 05:44:18;;;;;;;24.05;17.20;;;;;;;10.88;90.13;101219.78;4447425;32;34052;-78
2022/10/17 05:47:10;;;;;;;27.15;17.98;;;;;;;10.95;88.74;101219.50;4445992;32;32538;-78
2022/10/17 05:50:01;;;;;;;22.20;14.93;;;;;;;10.33;92.68;101230.44;4448342;32;34321;-78
2022/10/17 05:52:54;;;;;;;23.52;15.95;;;;;;;10.88;89.33;101224.47;4437781;32;33334;-78
2022/10/17 05:55:42;;;;;;;22.70;15.90;;;;;;;10.41;92.94;101234.53;4432631;32;32432;-78
2022/10/17 05:58:29;;;;;;;21.25;14.93;;;;;;;10.46;92.88;101242.78;4446748;32;32875;-78
2022/10/17 06:01:37;;;;;;;23.20;15.52;;;;;;;10.39;94.28;101241.38;4447690;32;34076;-78
2022/10/17 06:04:26;;;;;;;21.92;14.98;;;;;;;10.23;95.24;101245.97;4447522;32;33930;-78
2022/10/17 06:07:14;;;;;;;19.52;13.15;;;;;;;10.63;93.61;101258.16;4450401;32;33842;-78
2022/10/17 06:10:07;;;;;;;22.27;13.60;;;;;;;10.93;93.00;101246.38;4448962;32;33999;-78
2022/10/17 06:12:56;;;;;;;17.95;12.45;;;;;;;11.04;91.20;101261.72;4440982;32;34087;-78
2022/10/17 06:15:44;;;;;;;19.17;13.10;;;;;;;11.16;91.62;101261.47;4435776;32;33544;-78
2022/10/17 06:18:32;;;;;;;15.98;12.02;;;;;;;11.43;90.15;101259.25;4452526;32;34111;-78
2022/10/17 06:21:22;;;;;;;25.10;15.02;;;;;;;11.24;92.05;101274.63;4462415;32;33768;-78
2022/10/17 06:24:08;;;;;;;23.25;14.60;;;;;;;10.66;95.52;101276.81;4448085;32;34190;-78
2022/10/17 06:26:56;;;;;;;17.58;13.75;;;;;;;11.05;95.39;101274.37;4448533;32;33511;-78
2022/10/17 06:29:46;;;;;;;22.37;15.73;;;;;;;11.60;92.37;101272.66;4448767;32;34130;-78
2022/10/17 06:32:48;;;;;;;21.23;16.17;;;;;;;11.19;94.97;101280.94;4439085;32;33565;-78
2022/10/17 06:35:36;;;;;;;22.87;16.58;;;;;;;11.12;96.68;101285.88;4460777;32;33364;-78
2022/10/17 06:38:27;;;;;;;24.60;17.45;;;;;;;11.39;96.67;101280.13;4449260;32;33394;-78
2022/10/17 06:41:18;;;;;;;25.90;18.02;;;;;;;11.42;98.05;101290.53;4448539;32;33708;-78
2022/10/17 06:44:11;;;;;;;27.33;18.80;;;;;;;11.79;97.08;101288.56;4443856;32;34575;-78
2022/10/17 06:46:59;;;;;;;25.42;17.58;;;;;;;11.88;97.97;101292.41;4436578;32;34176;-78
2022/10/17 06:49:47;;;;;;;28.27;18.67;;;;;;;12.18;97.99;101299.72;4451343;32;33731;-78
2022/10/17 06:52:36;;;;;;;33.95;18.65;;;;;;;12.05;100.00;101306.62;4454816;32;35159;-78
2022/10/17 06:55:25;;;;;;;27.02;17.67;;;;;;;12.37;99.18;101305.38;4436995;32;33851;-78
2022/10/17 06:58:13;;;;;;;26.45;16.98;;;;;;;12.68;98.33;101306.03;4449183;32;33436;-79
2022/10/17 07:01:02;;;;;;;25.95;17.87;;;;;;;12.83;96.84;101319.72;4449112;32;33357;-78
2022/10/17 07:03:57;;;;;;;27.45;17.70;;;;;;;12.50;98.40;101314.97;4449045;32;34089;-78
2022/10/17 07:06:45;;;;;;;23.40;16.70;;;;;;;12.52;98.23;101318.22;4450157;32;34766;-79
2022/10/17 07:09:33;;;;;;;24.80;17.03;;;;;;;12.75;96.73;101317.56;4449034;32;33661;-78
2022/10/17 07:12:20;;;;;;;24.20;17.08;;;;;;;13.05;94.81;101316.50;4449042;32;34361;-79
2022/10/17 07:15:08;;;;;;;23.02;16.25;;;;;;;13.13;94.88;101322.53;4438402;32;35086;-79
2022/10/17 07:17:56;;;;;;;22.17;16.17;;;;;;;13.51;92.49;101315.34;4438414;32;33341;-79
2022/10/17 07:20:52;;;;;;;22.17;15.93;;;;;;;13.51;92.36;101320.84;4450002;32;33515;-79
2022/10/17 07:23:40;;;;;;;22.85;16.23;;;;;;;14.18;89.19;101323.72;4449012;32;33889;-79
2022/10/17 07:26:29;;;;;;;24.02;15.82;;;;;;;14.26;88.43;101317.56;4452020;32;34287;-79
2022/10/17 07:29:16;;;;;;;23.38;15.70;;;;;;;14.53;86.94;101324.41;4448637;32;34207;-79
2022/10/17 07:32:07;;;;;;;22.37;15.30;;;;;;;14.18;87.91;101320.97;4448985;32;34839;-79
2022/10/17 07:34:58;;;;;;;23.55;15.23;;;;;;;14.65;84.89;101322.03;4438379;32;34628;-79
2022/10/17 07:37:48;;;;;;;23.40;16.23;;;;;;;14.71;83.52;101318.06;4448941;32;34720;-79
2022/10/17 07:40:37;;;;;;;24.80;15.27;;;;;;;14.80;82.20;101324.59;4437562;32;33710;-79
2022/10/17 07:43:26;;;;;;;25.02;17.33;;;;;;;15.16;80.53;101321.25;4448688;32;33316;-79
2022/10/17 07:46:14;;;;;;;21.75;15.23;;;;;;;14.63;81.78;101327.03;4456279;32;33906;-79
2022/10/17 07:49:02;;;;;;;21.23;14.98;;;;;;;15.21;80.37;101331.41;4463859;32;34908;-79
2022/10/17 07:51:51;;;;;;;21.05;14.23;;;;;;;15.21;79.78;101332.22;4449029;32;33376;-79
2022/10/17 07:54:39;;;;;;;24.73;14.30;;;;;;;15.41;79.20;101327.50;4448883;32;33359;-79
2022/10/17 07:57:29;;;;;;;21.45;15.82;;;;;;;15.60;77.69;101328.28;4438828;32;32507;-79
2022/10/17 08:00:16;;;;;;;18.75;13.75;;;;;;;15.41;79.21;101328.31;4452875;32;34726;-79
2022/10/17 08:03:07;;;;;;;17.17;12.18;;;;;;;15.56;78.63;101332.75;4455419;32;32980;-79
2022/10/17 08:05:59;;;;;;;17.67;12.43;;;;;;;16.04;73.39;101328.84;4452546;32;34551;-79
2022/10/17 08:11:45;;;;;;;18.83;12.40;;;;;;;15.77;74.52;101337.94;4448676;32;33729;-79
2022/10/17 08:14:32;;;;;;;20.43;13.07;;;;;;;16.32;71.65;101343.50;4449050;32;34554;-79
2022/10/17 08:17:20;;;;;;;20.23;13.03;;;;;;;16.37;70.69;101340.66;4448652;32;33149;-79
2022/10/17 08:20:10;;;;;;;20.85;13.48;;;;;;;16.17;71.08;101339.94;4448618;32;34406;-79
2022/10/17 08:22:58;;;;;;;20.45;12.82;;;;;;;16.54;69.18;101346.34;4437423;32;33990;-79
2022/10/17 08:25:49;;;;;;;16.60;12.07;;;;;;;16.38;70.32;101345.84;4442254;32;33667;-79
2022/10/17 08:28:39;;;;;;;21.12;13.00;;;;;;;16.67;67.59;101349.41;4448470;32;32980;-79
2022/10/17 08:31:27;;;;;;;17.15;11.60;;;;;;;16.42;66.33;101348.81;4441056;32;33780;-79
2022/10/17 08:34:14;;;;;;;18.98;11.85;;;;;;;16.78;65.99;101348.06;4448582;32;36349;-79
2022/10/17 08:37:01;;;;;;;20.20;12.65;;;;;;;16.71;64.72;101351.25;4463849;32;33736;-79
2022/10/17 08:39:48;;;;;;;20.00;12.25;;;;;;;16.71;67.35;101348.47;4448447;32;34255;-79
2022/10/17 08:42:54;;;;;;;19.17;12.90;;;;;;;17.06;64.67;101341.31;4449817;32;33891;-79
2022/10/17 08:45:59;;;;;;;17.40;12.88;;;;;;;17.06;66.61;101352.41;4436473;32;33758;-79
2022/10/17 08:48:48;;;;;;;20.02;13.13;;;;;;;17.23;64.24;101345.37;4441157;32;32639;-79
2022/10/17 08:51:48;;;;;;;19.55;13.68;;;;;;;17.23;64.37;101348.97;4426206;32;33367;-79
2022/10/17 08:54:41;;;;;;;21.95;13.85;;;;;;;17.62;62.79;101355.75;4437295;32;34421;-79
2022/10/17 09:00:24;;;;;;;19.40;12.93;;;;;;;17.69;61.29;101356.09;4437974;32;34908;-79
2022/10/17 09:03:26;;;;;;;20.02;13.38;;;;;;;17.75;62.01;101351.25;4444952;32;33177;-79
2022/10/17 09:06:28;;;;;;;18.75;12.80;;;;;;;17.79;60.82;101346.75;4440502;32;33885;-79
2022/10/17 09:09:45;;;;;;;17.00;11.90;;;;;;;17.54;61.37;101351.78;4427683;32;33985;-79
2022/10/17 09:12:40;;;;;;;16.98;11.82;;;;;;;18.19;58.22;101346.75;4447490;32;35542;-79
2022/10/17 09:15:46;;;;;;;17.00;11.50;;;;;;;18.34;58.11;101346.31;4429517;32;34262;-79
2022/10/17 09:18:40;;;;;;;21.70;12.00;;;;;;;18.29;57.71;101346.44;4436281;32;33830;-78
2022/10/17 09:21:40;;;;;;;20.02;12.00;;;;;;;18.45;57.54;101343.25;4455616;32;35037;-78
2022/10/17 09:24:40;;;;;;;16.25;11.60;;;;;;;18.20;58.82;101346.44;4436534;32;33393;-78
2022/10/17 09:27:34;;;;;;;20.30;11.73;;;;;;;18.31;56.87;101344.19;4437659;32;32936;-78
2022/10/17 09:30:44;;;;;;;18.58;11.77;;;;;;;18.46;56.27;101348.47;4436262;32;33320;-78
2022/10/17 09:33:43;;;;;;;15.00;10.70;;;;;;;18.60;56.97;101342.78;4436307;32;34088;-78
2022/10/17 09:36:45;;;;;;;14.47;10.33;;;;;;;19.23;54.51;101348.87;4450160;32;33410;-78
2022/10/17 09:39:33;;;;;;;14.07;8.60;;;;;;;19.23;54.44;101344.16;4453528;32;33463;-78
2022/10/17 09:42:25;;;;;;;11.98;7.80;;;;;;;19.49;54.30;101346.88;4436219;32;34776;-78
2022/10/17 09:45:23;;;;;;;11.93;6.90;;;;;;;20.09;50.62;101347.06;4429471;32;34120;-78
2022/10/17 09:48:27;;;;;;;12.10;7.55;;;;;;;19.97;49.04;101345.81;4436446;32;33575;-78
2022/10/17 09:51:15;;;;;;;14.38;7.60;;;;;;;20.10;50.23;101343.97;4439813;32;34220;-78
2022/10/17 09:54:22;;;;;;;15.48;7.10;;;;;;;20.38;48.65;101351.87;4447363;32;34378;-78
2022/10/17 09:57:15;;;;;;;10.48;6.40;;;;;;;21.60;47.08;101345.34;4447439;32;33706;-78
2022/10/17 10:00:05;;;;;;;12.40;6.90;;;;;;;21.86;42.47;101342.28;4436595;32;33530;-78
2022/10/17 10:03:12;;;;;;;11.15;7.28;;;;;;;22.51;41.95;101343.25;4437730;32;33140;-79
2022/10/17 10:06:26;;;;;;;11.23;6.90;;;;;;;22.72;39.73;101337.53;4447492;32;33490;-78
2022/10/17 10:09:24;;;;;;;13.57;7.65;;;;;;;23.24;39.15;101341.47;4447251;32;34118;-78
2022/10/17 10:12:24;;;;;;;11.95;8.00;;;;;;;23.78;38.73;101339.00;4427753;32;32515;-79
2022/10/17 10:15:32;;;;;;;12.15;7.07;;;;;;;23.54;37.13;101333.53;4439021;32;34910;-78
2022/10/17 10:18:35;;;;;;;10.90;7.30;;;;;;;23.42;37.77;101339.16;4421989;32;33274;-78
2022/10/17 10:21:26;;;;;;;11.32;7.68;;;;;;;23.11;39.01;101335.13;4435513;32;35034;-78
2022/10/17 10:24:13;;;;;;;11.10;7.70;;;;;;;24.77;35.98;101329.78;4435960;32;34579;-78
2022/10/17 10:27:04;;;;;;;14.05;7.25;;;;;;;24.69;36.37;101326.81;4438409;32;33329;-79
2022/10/17 10:29:53;;;;;;;9.97;6.53;;;;;;;24.75;35.14;101332.13;4452668;32;34763;-79
2022/10/17 10:32:44;;;;;;;14.18;6.35;;;;;;;25.32;33.81;101328.56;4427033;32;35130;-79
2022/10/17 10:35:42;;;;;;;12.70;7.00;;;;;;;25.45;33.92;101325.59;4440018;32;32824;-78
2022/10/17 10:38:31;;;;;;;12.20;6.60;;;;;;;23.82;36.87;101327.88;4453021;32;33295;-79
2022/10/17 10:41:18;;;;;;;12.10;6.90;;;;;;;24.84;35.03;101315.91;4438800;32;34512;-79
2022/10/17 10:44:05;;;;;;;9.75;6.28;;;;;;;24.61;36.41;101319.41;4437509;32;34140;-79
2022/10/17 10:50:21;;;;;;;12.50;6.95;;;;;;;23.47;37.82;101322.13;4453488;32;33340;-79
2022/10/17 10:53:48;;;;;;;13.65;6.75;;;;;;;23.88;36.34;101320.03;4449243;32;33846;-79
2022/10/17 10:56:39;;;;;;;11.65;6.93;;;;;;;23.66;37.64;101322.25;4464125;32;34216;-78
2022/10/17 10:59:33;;;;;;;11.23;7.22;;;;;;;23.16;38.67;101317.28;4449080;32;33632;-78
2022/10/17 11:02:45;;;;;;;12.53;6.73;;;;;;;22.38;40.47;101319.31;4449598;32;33517;-78
2022/10/17 11:05:57;;;;;;;11.25;6.40;;;;;;;22.02;41.93;101318.91;4455301;32;33784;-79
2022/10/17 11:08:52;;;;;;;11.73;6.62;;;;;;;22.44;40.29;101315.91;4426271;32;34174;-79
2022/10/17 11:15:13;;;;;;;15.63;7.00;;;;;;;22.30;41.99;101323.03;4449857;32;33355;-78
2022/10/17 11:18:06;;;;;;;11.67;6.30;;;;;;;21.95;42.91;101306.72;4452534;32;33723;-79
2022/10/17 11:21:02;;;;;;;12.48;6.05;;;;;;;22.32;41.73;101299.19;4426678;32;34101;-78
2022/10/17 11:24:13;;;;;;;11.10;5.80;;;;;;;21.99;43.07;101302.88;4438177;32;34623;-78
2022/10/17 11:27:04;;;;;;;7.85;5.28;;;;;;;21.54;43.69;101312.13;4448916;32;33352;-78
2022/10/17 11:30:02;;;;;;;12.18;5.37;;;;;;;21.61;42.34;101305.97;4448915;32;34837;-78
2022/10/17 11:32:59;;;;;;;11.57;5.73;;;;;;;22.22;42.07;101302.44;4441602;32;34001;-78
2022/10/17 11:35:49;;;;;;;8.63;5.07;;;;;;;22.37;40.41;101293.38;4438051;32;34297;-79
2022/10/17 11:38:45;;;;;;;8.50;5.60;;;;;;;22.80;40.09;101305.84;4437729;32;33191;-78
2022/10/17 11:41:42;;;;;;;10.90;6.15;;;;;;;22.05;43.71;101297.06;4437211;32;33763;-78
2022/10/17 11:44:37;;;;;;;9.27;5.70;;;;;;;22.32;41.52;101285.22;4440303;32;34923;-78
2022/10/17 11:47:30;;;;;;;10.40;5.82;;;;;;;22.57;42.07;101291.59;4438391;32;33412;-78
2022/10/17 11:50:30;;;;;;;12.43;6.20;;;;;;;22.43;42.81;101289.16;4437866;32;33274;-78
2022/10/17 11:54:01;;;;;;;11.32;6.05;;;;;;;22.86;41.56;101282.06;4440386;32;34642;-78
2022/10/17 11:57:05;;;;;;;10.97;5.27;;;;;;;22.45;40.77;101283.22;4449425;32;33933;-78
2022/10/17 11:59:56;;;;;;;11.57;6.03;;;;;;;22.28;43.38;101281.50;4451350;32;33926;-78
2022/10/17 12:03:22;;;;;;;10.23;5.43;;;;;;;22.68;41.57;101287.13;4441644;32;34150;-78
2022/10/17 12:06:17;;;;;;;6.93;4.72;;;;;;;22.57;41.38;101288.78;4463197;32;35113;-78
2022/10/17 12:09:14;;;;;;;8.50;5.10;;;;;;;22.25;44.16;101284.97;4436990;32;34124;-78
2022/10/17 12:12:03;;;;;;;9.45;5.40;;;;;;;22.82;40.62;101275.53;4437260;32;33659;-78
2022/10/17 12:14:50;;;;;;;12.23;5.60;;;;;;;22.63;40.79;101276.22;4448466;32;33867;-78
2022/10/17 12:18:01;;;;;;;8.95;5.10;;;;;;;22.17;42.01;101274.72;4453395;32;34877;-78
2022/10/17 12:20:56;;;;;;;12.20;5.07;;;;;;;22.67;42.70;101277.13;4438162;32;34315;-78
2022/10/17 12:23:52;;;;;;;10.32;4.97;;;;;;;22.41;43.63;101266.34;4450033;32;33800;-79
2022/10/17 12:26:40;;;;;;;8.77;5.00;;;;;;;23.03;40.45;101263.41;4448597;32;32975;-78
2022/10/17 12:29:32;;;;;;;8.98;4.95;;;;;;;23.30;39.73;101256.94;4448244;32;33920;-78
2022/10/17 12:32:20;;;;;;;10.57;5.10;;;;;;;22.68;41.42;101252.78;4430291;32;34164;-78
2022/10/17 12:35:18;;;;;;;9.33;5.03;;;;;;;22.98;41.45;101258.06;4452243;32;33693;-78
2022/10/17 12:38:16;;;;;;;9.18;4.93;;;;;;;22.44;44.34;101250.87;4448561;32;33219;-78
2022/10/17 12:41:05;;;;;;;9.00;4.87;;;;;;;22.80;41.59;101246.34;4448303;32;34402;-78
2022/10/17 12:43:53;;;;;;;9.15;4.80;;;;;;;23.49;39.07;101242.28;4437275;32;34004;-78
2022/10/17 12:47:09;;;;;;;9.37;4.93;;;;;;;23.23;39.50;101250.37;4437238;32;33411;-78
2022/10/17 12:49:55;;;;;;;8.68;4.97;;;;;;;23.56;37.92;101250.87;4447358;32;33244;-78
2022/10/17 12:52:43;;;;;;;8.20;4.90;;;;;;;23.29;41.06;101252.53;4449660;32;33325;-78
2022/10/17 12:55:32;;;;;;;8.30;4.80;;;;;;;23.13;39.49;101243.31;4462976;32;35175;-78
2022/10/17 12:58:38;;;;;;;10.13;5.03;;;;;;;23.71;38.51;101249.28;4452013;32;34801;-78
2022/10/17 13:04:35;;;;;;;8.43;4.95;;;;;;;25.40;33.90;101252.97;4438603;32;33769;-78
2022/10/17 13:07:25;;;;;;;11.53;4.90;;;;;;;25.05;35.37;101242.66;4436559;32;34114;-78
2022/10/17 13:10:20;;;;;;;8.00;4.68;;;;;;;24.42;35.57;101235.34;4442006;32;33745;-78
2022/10/17 13:13:21;;;;;;;7.18;4.20;;;;;;;24.73;33.89;101247.59;4433639;32;34190;-78
2022/10/17 13:16:27;;;;;;;11.43;5.18;;;;;;;25.16;33.26;101242.88;4451512;32;33727;-78
2022/10/17 13:19:22;;;;;;;8.50;4.40;;;;;;;24.87;34.77;101237.53;4448266;32;33728;-78
2022/10/17 13:22:19;;;;;;;9.30;4.75;;;;;;;24.20;36.28;101237.63;4451832;32;33448;-78
2022/10/17 13:28:17;;;;;;;8.30;4.73;;;;;;;24.89;34.91;101234.31;4437171;32;34394;-78